Carmichael, Francesca
United StatesWomanBorn 19592008 – 2019Runner id 145182
Events
56
53 race dates
Best pace
8.559
km/h · 2009
Best finish
5th
of 40 · 2010
Distance raced
7,651
km · splits not double-counted
Pace over time
km/h · higher is faster
Pace over time: 53 races and 3 splits from 2008 to 2019, ranging from 2.03 to 9.62 kilometres per hour, where higher is faster. A second, age-graded series is drawn above it; the gap between the two is the age credit.
- Actual pace
- Age-graded pace
- Split of a race already plotted
Results
| Date | Event | Distance | Result | Pace km/h | Placing |
|---|---|---|---|---|---|
| 2008-04-13 | 50mi | 9:53:41 h | 8.132 | 41/50 | |
| 2008-05-17 | Watershed Preserve 12 Hr Trail RaceUnited States | 12h | 81.947 km | 6.829 | 20/53 |
| 2008-05-31 | The 20th Century 100K Trail RunUnited States | 100km | 12:37:57 h | 7.916 | 11/15 |
| 2009-01-10 | Bridle Trails Winter Running FestivalUnited States | 50km | 6:47:14 h | 7.367 | 47/50 |
| 2009-04-19 | 50mi | 9:24:07 h | 8.559 | 38/48 | |
| 2009-05-16 | Watershed Preserve 12 Hr Trail RaceUnited States | 12h | 87.129 km | 7.261 | 20/66 |
| 2009-06-20 | The 20th Century 100K Trail RunUnited States | 100km | 12:47:45 h | 7.815 | 11/14 |
| 2009-10-31 | 12h | 65.226 km | 5.436 | 15/33 | |
| 2010-01-09 | Bridle Trails Winter Running FestivalUnited States | 50km | 6:52:05 h | 7.280 | 62/70 |
| 2010-05-15 | 12h | 79.630 km | 6.636 | 44/80 | |
| 2010-07-31 | 50mi | 14:01:09 h | 5.740 | 192/194 | |
| 2010-08-15 | 12h | 85.842 km | 7.154 | 5/40 | |
| 2010-09-18 | 50km | 8:29:58 h | 5.883 | 86/97 | |
| 2010-10-17 | Soaring Eagle Park 50KUnited States | 50km | 6:50:36 h | 7.306 | 7/8 |
| 2010-10-30 | 12h | 68.332 km | 5.694 | 11/25 | |
| 2010-11-06 | Ron Herzog 50KUnited States | 50km | 6:05:00 h | 8.219 | 18/35 |
| 2011-02-05 | 100mi | 29:09:17 h | 5.520 | 170/190 | |
| 2011-03-26 | 50miles | 9:33:00 h | 8.426 | 1/2 | |
| 2011-04-03 | 50km | 8:40:11 h | 5.767 | 46/63 | |
| 2011-04-16 | 50mi | 14:02:00 h | 5.734 | 20/25 | |
| 2011-05-28 | 100km | 15:00:10 h | 6.665 | 935/1258 | |
| 2011-07-30 | 50mi | 13:33:08 h | 5.938 | 240/244 | |
| 2011-09-03 | 50km | 7:49:40 h | 6.388 | 3/5 | |
| 2011-09-24 | 50mi | 16:04:00 h | 5.008 | 68/77 | |
| 2011-10-23 | 60km | 8:14:07 h | 7.286 | 45/45 | |
| 2011-11-12 | 100mi | 29:13:53 h | 5.506 | 158/174 | |
| 2012-01-28 | Bridle Trails Winter Running FestivalUnited States | 50km | 6:39:41 h | 7.506 | 38/46 |
| 2012-05-24 | Pigtails Challenge 150 MileUnited States | 150mi | 2d 02:23:00 h | 4.791 | 2/3 |
| 2012-07-21 | 100mi | 29:37:36 h | 5.432 | 216/218 | |
| 2012-10-27 | 12h | 62.442 km | 5.204 | 12/20 | |
| 2012-12-29 | 24h | 130.091 km | 5.420 | 26/138 | |
| 2013-01-13 | 100km | 20:02:54 h | 4.988 | 174/185 | |
| 2013-05-23 | 200mi | 2d 15:01:00 h | 5.108 | 3/6 | |
| 2013-07-20 | 100mi | 27:25:34 h | 5.868 | 153/205 | |
| 2013-10-12 | 100mi | 26:51:38 h | 5.991 | 47/75 | |
| 2013-11-02 | 12h | 55.908 km | 4.659 | 11/16 | |
| 2013-12-29 | 72h | 250.045 km | 3.473 | 18/58 | |
| 2014-04-05 | 50mi | 13:42:05 h | 5.873 | 74/87 | |
| 2014-08-04 | 6d | 485.571 km | 3.372 | 19/40 | |
| 2014-08-04 | Six Days in the Dome - 48h SplitUnited StatesIAU BronzeSplit of a longer race in this career; not counted again in the distance total*Woodinville, WA | 48h | 195.631 km | 4.076 | 24/40 |
| 2014-08-04 | Six Days in the Dome - 24h SplitUnited StatesIAU BronzeSplit of a longer race in this career; not counted again in the distance total*Woodinville, WA | 24h | 121.602 km | 5.067 | 24/40 |
| 2014-10-04 | 100mi | 27:58:42 h | 5.752 | 76/106 | |
| 2014-12-28 | 6d | 523.744 km | 3.637 | 8/47 | |
| 2015-03-28 | 100mi | 24:02:00 h | 6.696 | 82/147 | |
| 2015-09-04 | 84h | 189.902 km | 2.261 | 47/152 | |
| 2015-12-28 | 6d | 378.453 km | 2.628 | 24/65 | |
| 2016-04-02 | 50mi | 11:01:35 h | 7.298 | 21/84 | |
| 2016-09-01 | 85h | 172.199 km | 2.026 | 68/145 | |
| 2016-12-31 | 48h | 163.880 km | 3.414 | 19/67 | |
| 2017-04-01 | 50mi | 11:48:04 h | 6.819 | 40/103 |
Showing 1–50 of 56